sensor_id;sensor_type;location;lat;lon;timestamp;P1;durP1;ratioP1;P2;durP2;ratioP2
66830;SDS011;53739;44.224;22.528;2022-11-20T00:03:31;23.45;;;17.75;;
66830;SDS011;53739;44.224;22.528;2022-11-20T00:06:03;29.67;;;18.80;;
66830;SDS011;53739;44.224;22.528;2022-11-20T00:08:31;40.65;;;24.17;;
66830;SDS011;53739;44.224;22.528;2022-11-20T00:10:57;39.60;;;27.92;;
66830;SDS011;53739;44.224;22.528;2022-11-20T00:13:27;41.78;;;29.08;;
66830;SDS011;53739;44.224;22.528;2022-11-20T00:15:56;43.33;;;28.58;;
66830;SDS011;53739;44.224;22.528;2022-11-20T00:18:24;40.00;;;25.63;;
66830;SDS011;53739;44.224;22.528;2022-11-20T00:20:50;38.60;;;28.75;;
66830;SDS011;53739;44.224;22.528;2022-11-20T00:23:19;44.47;;;31.63;;
66830;SDS011;53739;44.224;22.528;2022-11-20T00:25:45;38.05;;;28.30;;
66830;SDS011;53739;44.224;22.528;2022-11-20T00:28:11;64.80;;;45.40;;
66830;SDS011;53739;44.224;22.528;2022-11-20T00:30:37;46.03;;;31.20;;
66830;SDS011;53739;44.224;22.528;2022-11-20T00:33:02;39.33;;;30.52;;
66830;SDS011;53739;44.224;22.528;2022-11-20T00:35:28;42.63;;;31.90;;
66830;SDS011;53739;44.224;22.528;2022-11-20T00:37:54;42.47;;;32.53;;
66830;SDS011;53739;44.224;22.528;2022-11-20T00:40:20;44.67;;;27.75;;
66830;SDS011;53739;44.224;22.528;2022-11-20T00:42:46;54.70;;;36.60;;
66830;SDS011;53739;44.224;22.528;2022-11-20T00:45:12;44.65;;;32.30;;
66830;SDS011;53739;44.224;22.528;2022-11-20T00:47:37;53.00;;;37.58;;
66830;SDS011;53739;44.224;22.528;2022-11-20T00:50:03;42.72;;;29.27;;
66830;SDS011;53739;44.224;22.528;2022-11-20T00:52:29;34.33;;;25.25;;
66830;SDS011;53739;44.224;22.528;2022-11-20T00:54:55;150.65;;;73.70;;
66830;SDS011;53739;44.224;22.528;2022-11-20T00:57:21;52.03;;;36.35;;
66830;SDS011;53739;44.224;22.528;2022-11-20T00:59:47;37.28;;;26.27;;
66830;SDS011;53739;44.224;22.528;2022-11-20T01:02:12;32.85;;;23.65;;
66830;SDS011;53739;44.224;22.528;2022-11-20T01:04:40;45.60;;;33.95;;
66830;SDS011;53739;44.224;22.528;2022-11-20T01:07:06;36.70;;;26.10;;
66830;SDS011;53739;44.224;22.528;2022-11-20T01:09:32;32.22;;;25.33;;
66830;SDS011;53739;44.224;22.528;2022-11-20T01:11:57;38.42;;;28.67;;
66830;SDS011;53739;44.224;22.528;2022-11-20T01:14:24;41.47;;;30.30;;
66830;SDS011;53739;44.224;22.528;2022-11-20T01:16:50;28.95;;;22.05;;
66830;SDS011;53739;44.224;22.528;2022-11-20T01:19:17;40.55;;;29.85;;
66830;SDS011;53739;44.224;22.528;2022-11-20T01:21:46;36.17;;;26.23;;
66830;SDS011;53739;44.224;22.528;2022-11-20T01:24:15;43.53;;;31.15;;
66830;SDS011;53739;44.224;22.528;2022-11-20T01:26:42;32.70;;;24.27;;
66830;SDS011;53739;44.224;22.528;2022-11-20T01:29:12;34.63;;;24.45;;
66830;SDS011;53739;44.224;22.528;2022-11-20T01:31:41;32.17;;;23.77;;
66830;SDS011;53739;44.224;22.528;2022-11-20T01:34:11;28.55;;;21.75;;
66830;SDS011;53739;44.224;22.528;2022-11-20T01:36:40;29.02;;;20.25;;
66830;SDS011;53739;44.224;22.528;2022-11-20T01:39:09;31.33;;;23.30;;
66830;SDS011;53739;44.224;22.528;2022-11-20T01:41:37;31.45;;;21.77;;
66830;SDS011;53739;44.224;22.528;2022-11-20T01:44:39;30.95;;;22.88;;
66830;SDS011;53739;44.224;22.528;2022-11-20T01:47:17;29.35;;;21.52;;
66830;SDS011;53739;44.224;22.528;2022-11-20T01:49:56;30.95;;;23.65;;
66830;SDS011;53739;44.224;22.528;2022-11-20T01:52:49;31.70;;;22.50;;
66830;SDS011;53739;44.224;22.528;2022-11-20T01:55:21;27.92;;;20.63;;
66830;SDS011;53739;44.224;22.528;2022-11-20T01:57:51;28.15;;;18.83;;
66830;SDS011;53739;44.224;22.528;2022-11-20T02:00:18;31.00;;;20.98;;
66830;SDS011;53739;44.224;22.528;2022-11-20T02:02:46;36.38;;;25.65;;
66830;SDS011;53739;44.224;22.528;2022-11-20T02:05:27;31.77;;;23.02;;
66830;SDS011;53739;44.224;22.528;2022-11-20T02:07:59;30.88;;;23.30;;
66830;SDS011;53739;44.224;22.528;2022-11-20T02:10:27;31.40;;;22.67;;
66830;SDS011;53739;44.224;22.528;2022-11-20T02:12:54;27.15;;;19.90;;
66830;SDS011;53739;44.224;22.528;2022-11-20T02:15:39;32.15;;;22.00;;
66830;SDS011;53739;44.224;22.528;2022-11-20T02:18:06;27.73;;;19.02;;
66830;SDS011;53739;44.224;22.528;2022-11-20T02:20:33;28.63;;;19.98;;
66830;SDS011;53739;44.224;22.528;2022-11-20T02:23:08;27.77;;;20.42;;
66830;SDS011;53739;44.224;22.528;2022-11-20T02:25:44;29.73;;;22.13;;
66830;SDS011;53739;44.224;22.528;2022-11-20T02:28:12;33.95;;;25.13;;
66830;SDS011;53739;44.224;22.528;2022-11-20T02:30:38;35.47;;;26.13;;
66830;SDS011;53739;44.224;22.528;2022-11-20T02:33:04;32.03;;;24.55;;
66830;SDS011;53739;44.224;22.528;2022-11-20T02:37:56;32.65;;;24.85;;
66830;SDS011;53739;44.224;22.528;2022-11-20T02:40:24;31.13;;;24.48;;
66830;SDS011;53739;44.224;22.528;2022-11-20T02:42:54;35.20;;;25.63;;
66830;SDS011;53739;44.224;22.528;2022-11-20T02:45:21;29.58;;;23.73;;
66830;SDS011;53739;44.224;22.528;2022-11-20T02:47:50;30.83;;;23.30;;
66830;SDS011;53739;44.224;22.528;2022-11-20T02:50:16;27.98;;;21.23;;
66830;SDS011;53739;44.224;22.528;2022-11-20T02:52:42;48.05;;;32.03;;
66830;SDS011;53739;44.224;22.528;2022-11-20T02:55:08;37.83;;;27.77;;
66830;SDS011;53739;44.224;22.528;2022-11-20T02:57:34;29.92;;;21.38;;
66830;SDS011;53739;44.224;22.528;2022-11-20T03:00:00;32.67;;;22.73;;
66830;SDS011;53739;44.224;22.528;2022-11-20T03:02:29;37.25;;;26.40;;
66830;SDS011;53739;44.224;22.528;2022-11-20T03:04:55;53.67;;;37.30;;
66830;SDS011;53739;44.224;22.528;2022-11-20T03:07:21;59.22;;;40.00;;
66830;SDS011;53739;44.224;22.528;2022-11-20T03:09:47;74.45;;;49.15;;
66830;SDS011;53739;44.224;22.528;2022-11-20T03:12:13;70.30;;;48.20;;
66830;SDS011;53739;44.224;22.528;2022-11-20T03:14:39;71.68;;;48.22;;
66830;SDS011;53739;44.224;22.528;2022-11-20T03:17:04;72.15;;;42.40;;
66830;SDS011;53739;44.224;22.528;2022-11-20T03:19:30;66.95;;;41.35;;
66830;SDS011;53739;44.224;22.528;2022-11-20T03:21:56;81.07;;;53.65;;
66830;SDS011;53739;44.224;22.528;2022-11-20T03:24:22;71.68;;;45.17;;
66830;SDS011;53739;44.224;22.528;2022-11-20T03:26:47;69.90;;;44.10;;
66830;SDS011;53739;44.224;22.528;2022-11-20T03:29:13;64.40;;;45.45;;
66830;SDS011;53739;44.224;22.528;2022-11-20T03:31:40;74.97;;;51.53;;
66830;SDS011;53739;44.224;22.528;2022-11-20T03:34:06;83.10;;;53.78;;
66830;SDS011;53739;44.224;22.528;2022-11-20T03:36:33;103.50;;;65.28;;
66830;SDS011;53739;44.224;22.528;2022-11-20T03:38:59;70.28;;;47.75;;
66830;SDS011;53739;44.224;22.528;2022-11-20T03:41:46;81.85;;;54.60;;
66830;SDS011;53739;44.224;22.528;2022-11-20T03:44:11;78.80;;;51.45;;
66830;SDS011;53739;44.224;22.528;2022-11-20T03:46:37;75.10;;;47.20;;
66830;SDS011;53739;44.224;22.528;2022-11-20T03:49:03;66.05;;;41.38;;
66830;SDS011;53739;44.224;22.528;2022-11-20T03:51:30;64.38;;;44.17;;
66830;SDS011;53739;44.224;22.528;2022-11-20T03:53:59;77.78;;;47.67;;
66830;SDS011;53739;44.224;22.528;2022-11-20T03:56:27;77.22;;;49.10;;
66830;SDS011;53739;44.224;22.528;2022-11-20T03:58:54;68.50;;;41.78;;
66830;SDS011;53739;44.224;22.528;2022-11-20T04:01:22;58.47;;;37.72;;
66830;SDS011;53739;44.224;22.528;2022-11-20T04:03:49;57.20;;;36.65;;
66830;SDS011;53739;44.224;22.528;2022-11-20T04:06:20;58.92;;;33.95;;
66830;SDS011;53739;44.224;22.528;2022-11-20T04:08:48;65.57;;;38.92;;
66830;SDS011;53739;44.224;22.528;2022-11-20T04:11:15;82.60;;;44.10;;
66830;SDS011;53739;44.224;22.528;2022-11-20T04:13:41;69.00;;;38.60;;
66830;SDS011;53739;44.224;22.528;2022-11-20T04:16:08;81.88;;;48.65;;
66830;SDS011;53739;44.224;22.528;2022-11-20T04:18:35;71.97;;;42.05;;
66830;SDS011;53739;44.224;22.528;2022-11-20T04:21:02;80.57;;;47.25;;
66830;SDS011;53739;44.224;22.528;2022-11-20T04:23:28;86.05;;;48.55;;
66830;SDS011;53739;44.224;22.528;2022-11-20T04:25:54;80.68;;;46.17;;
66830;SDS011;53739;44.224;22.528;2022-11-20T04:28:20;84.22;;;47.47;;
66830;SDS011;53739;44.224;22.528;2022-11-20T04:30:46;82.50;;;48.65;;
66830;SDS011;53739;44.224;22.528;2022-11-20T04:33:11;85.25;;;48.25;;
66830;SDS011;53739;44.224;22.528;2022-11-20T04:35:37;86.70;;;51.47;;
66830;SDS011;53739;44.224;22.528;2022-11-20T04:38:03;84.88;;;49.33;;
66830;SDS011;53739;44.224;22.528;2022-11-20T04:40:29;82.90;;;48.95;;
66830;SDS011;53739;44.224;22.528;2022-11-20T04:42:56;80.20;;;47.78;;
66830;SDS011;53739;44.224;22.528;2022-11-20T04:45:22;76.97;;;45.92;;
66830;SDS011;53739;44.224;22.528;2022-11-20T04:47:48;78.13;;;47.25;;
66830;SDS011;53739;44.224;22.528;2022-11-20T04:50:14;83.78;;;54.03;;
66830;SDS011;53739;44.224;22.528;2022-11-20T04:52:40;80.35;;;52.85;;
66830;SDS011;53739;44.224;22.528;2022-11-20T04:55:06;78.90;;;50.58;;
66830;SDS011;53739;44.224;22.528;2022-11-20T04:57:32;75.82;;;52.42;;
66830;SDS011;53739;44.224;22.528;2022-11-20T04:59:58;78.93;;;51.50;;
66830;SDS011;53739;44.224;22.528;2022-11-20T05:02:24;96.32;;;59.03;;
66830;SDS011;53739;44.224;22.528;2022-11-20T05:04:50;73.07;;;47.15;;
66830;SDS011;53739;44.224;22.528;2022-11-20T05:07:16;70.45;;;44.67;;
66830;SDS011;53739;44.224;22.528;2022-11-20T05:09:41;62.42;;;39.53;;
66830;SDS011;53739;44.224;22.528;2022-11-20T05:12:08;61.17;;;41.70;;
66830;SDS011;53739;44.224;22.528;2022-11-20T05:14:34;59.15;;;39.70;;
66830;SDS011;53739;44.224;22.528;2022-11-20T05:17:00;72.60;;;49.55;;
66830;SDS011;53739;44.224;22.528;2022-11-20T05:19:25;68.03;;;46.35;;
66830;SDS011;53739;44.224;22.528;2022-11-20T05:21:51;53.05;;;36.95;;
66830;SDS011;53739;44.224;22.528;2022-11-20T05:24:17;51.38;;;36.20;;
66830;SDS011;53739;44.224;22.528;2022-11-20T05:26:42;53.97;;;37.85;;
66830;SDS011;53739;44.224;22.528;2022-11-20T05:29:09;51.13;;;37.53;;
66830;SDS011;53739;44.224;22.528;2022-11-20T05:31:44;44.42;;;32.47;;
66830;SDS011;53739;44.224;22.528;2022-11-20T05:34:09;46.85;;;33.83;;
66830;SDS011;53739;44.224;22.528;2022-11-20T05:36:35;51.15;;;38.40;;
66830;SDS011;53739;44.224;22.528;2022-11-20T05:39:01;58.90;;;41.50;;
66830;SDS011;53739;44.224;22.528;2022-11-20T05:41:30;64.32;;;45.50;;
66830;SDS011;53739;44.224;22.528;2022-11-20T05:43:56;79.53;;;50.28;;
66830;SDS011;53739;44.224;22.528;2022-11-20T05:46:25;78.72;;;51.47;;
66830;SDS011;53739;44.224;22.528;2022-11-20T05:48:51;71.90;;;46.83;;
66830;SDS011;53739;44.224;22.528;2022-11-20T05:51:19;74.50;;;47.97;;
66830;SDS011;53739;44.224;22.528;2022-11-20T05:53:45;70.53;;;45.97;;
66830;SDS011;53739;44.224;22.528;2022-11-20T05:56:16;69.80;;;46.80;;
66830;SDS011;53739;44.224;22.528;2022-11-20T05:58:43;66.07;;;43.00;;
66830;SDS011;53739;44.224;22.528;2022-11-20T06:01:11;66.95;;;47.22;;
66830;SDS011;53739;44.224;22.528;2022-11-20T06:03:43;65.47;;;46.42;;
66830;SDS011;53739;44.224;22.528;2022-11-20T06:06:13;68.05;;;48.15;;
66830;SDS011;53739;44.224;22.528;2022-11-20T06:08:40;63.78;;;44.63;;
66830;SDS011;53739;44.224;22.528;2022-11-20T06:11:07;87.63;;;59.08;;
66830;SDS011;53739;44.224;22.528;2022-11-20T06:13:34;82.10;;;57.67;;
66830;SDS011;53739;44.224;22.528;2022-11-20T06:16:03;73.88;;;53.65;;
66830;SDS011;53739;44.224;22.528;2022-11-20T06:18:31;70.57;;;51.20;;
66830;SDS011;53739;44.224;22.528;2022-11-20T06:21:04;67.80;;;49.65;;
66830;SDS011;53739;44.224;22.528;2022-11-20T06:23:33;113.63;;;77.57;;
66830;SDS011;53739;44.224;22.528;2022-11-20T06:26:03;98.70;;;67.28;;
66830;SDS011;53739;44.224;22.528;2022-11-20T06:28:34;84.18;;;57.97;;
66830;SDS011;53739;44.224;22.528;2022-11-20T06:31:00;83.85;;;55.40;;
66830;SDS011;53739;44.224;22.528;2022-11-20T06:33:26;82.78;;;52.70;;
66830;SDS011;53739;44.224;22.528;2022-11-20T06:35:55;67.15;;;46.97;;
66830;SDS011;53739;44.224;22.528;2022-11-20T06:38:33;59.33;;;45.08;;
66830;SDS011;53739;44.224;22.528;2022-11-20T06:40:58;58.00;;;42.88;;
66830;SDS011;53739;44.224;22.528;2022-11-20T06:43:24;61.47;;;42.78;;
66830;SDS011;53739;44.224;22.528;2022-11-20T06:45:54;68.40;;;50.47;;
66830;SDS011;53739;44.224;22.528;2022-11-20T06:48:22;78.72;;;56.45;;
66830;SDS011;53739;44.224;22.528;2022-11-20T06:50:48;86.22;;;60.50;;
66830;SDS011;53739;44.224;22.528;2022-11-20T06:53:14;82.00;;;56.33;;
66830;SDS011;53739;44.224;22.528;2022-11-20T06:55:44;132.20;;;84.20;;
66830;SDS011;53739;44.224;22.528;2022-11-20T06:58:11;158.45;;;106.97;;
66830;SDS011;53739;44.224;22.528;2022-11-20T07:00:38;86.43;;;61.05;;
66830;SDS011;53739;44.224;22.528;2022-11-20T07:03:05;82.38;;;57.83;;
66830;SDS011;53739;44.224;22.528;2022-11-20T07:05:32;98.40;;;72.90;;
66830;SDS011;53739;44.224;22.528;2022-11-20T07:07:58;76.18;;;56.97;;
66830;SDS011;53739;44.224;22.528;2022-11-20T07:10:24;87.03;;;63.53;;
66830;SDS011;53739;44.224;22.528;2022-11-20T07:12:51;81.75;;;62.33;;
66830;SDS011;53739;44.224;22.528;2022-11-20T07:15:18;83.95;;;63.47;;
66830;SDS011;53739;44.224;22.528;2022-11-20T07:17:45;94.88;;;67.93;;
66830;SDS011;53739;44.224;22.528;2022-11-20T07:20:11;91.88;;;65.25;;
66830;SDS011;53739;44.224;22.528;2022-11-20T07:22:37;93.50;;;65.32;;
66830;SDS011;53739;44.224;22.528;2022-11-20T07:25:04;86.75;;;60.40;;
66830;SDS011;53739;44.224;22.528;2022-11-20T07:27:30;80.45;;;55.67;;
66830;SDS011;53739;44.224;22.528;2022-11-20T07:29:56;318.92;;;201.60;;
66830;SDS011;53739;44.224;22.528;2022-11-20T07:32:22;172.65;;;119.60;;
66830;SDS011;53739;44.224;22.528;2022-11-20T07:34:49;171.48;;;114.35;;
66830;SDS011;53739;44.224;22.528;2022-11-20T07:37:14;126.68;;;91.55;;
66830;SDS011;53739;44.224;22.528;2022-11-20T07:39:41;107.40;;;79.57;;
66830;SDS011;53739;44.224;22.528;2022-11-20T07:42:07;121.47;;;80.97;;
66830;SDS011;53739;44.224;22.528;2022-11-20T07:44:33;103.63;;;73.72;;
66830;SDS011;53739;44.224;22.528;2022-11-20T07:46:59;105.28;;;76.93;;
66830;SDS011;53739;44.224;22.528;2022-11-20T07:49:25;100.00;;;73.95;;
66830;SDS011;53739;44.224;22.528;2022-11-20T07:51:51;101.93;;;82.00;;
66830;SDS011;53739;44.224;22.528;2022-11-20T07:54:20;96.65;;;73.68;;
66830;SDS011;53739;44.224;22.528;2022-11-20T07:56:47;95.68;;;71.18;;
66830;SDS011;53739;44.224;22.528;2022-11-20T07:59:13;96.93;;;70.13;;
66830;SDS011;53739;44.224;22.528;2022-11-20T08:01:40;86.90;;;66.47;;
66830;SDS011;53739;44.224;22.528;2022-11-20T08:04:07;81.03;;;60.80;;
66830;SDS011;53739;44.224;22.528;2022-11-20T08:06:33;85.35;;;68.10;;
66830;SDS011;53739;44.224;22.528;2022-11-20T08:08:58;86.50;;;66.03;;
66830;SDS011;53739;44.224;22.528;2022-11-20T08:11:24;80.55;;;59.08;;
66830;SDS011;53739;44.224;22.528;2022-11-20T08:14:08;69.18;;;53.00;;
66830;SDS011;53739;44.224;22.528;2022-11-20T08:16:44;69.78;;;50.67;;
66830;SDS011;53739;44.224;22.528;2022-11-20T08:19:12;80.63;;;60.67;;
66830;SDS011;53739;44.224;22.528;2022-11-20T08:21:39;68.32;;;50.70;;
66830;SDS011;53739;44.224;22.528;2022-11-20T08:24:05;60.50;;;45.63;;
66830;SDS011;53739;44.224;22.528;2022-11-20T08:26:32;72.68;;;53.85;;
66830;SDS011;53739;44.224;22.528;2022-11-20T08:28:58;140.77;;;105.00;;
66830;SDS011;53739;44.224;22.528;2022-11-20T08:31:25;101.63;;;79.35;;
66830;SDS011;53739;44.224;22.528;2022-11-20T08:33:52;64.63;;;49.08;;
66830;SDS011;53739;44.224;22.528;2022-11-20T08:36:18;83.00;;;58.85;;
66830;SDS011;53739;44.224;22.528;2022-11-20T08:38:49;82.57;;;66.45;;
66830;SDS011;53739;44.224;22.528;2022-11-20T08:41:19;87.70;;;66.00;;
66830;SDS011;53739;44.224;22.528;2022-11-20T08:43:56;127.45;;;97.18;;
66830;SDS011;53739;44.224;22.528;2022-11-20T08:46:24;250.23;;;174.25;;
66830;SDS011;53739;44.224;22.528;2022-11-20T08:48:51;149.43;;;109.78;;
66830;SDS011;53739;44.224;22.528;2022-11-20T08:51:18;134.40;;;99.07;;
66830;SDS011;53739;44.224;22.528;2022-11-20T08:53:44;113.18;;;79.82;;
66830;SDS011;53739;44.224;22.528;2022-11-20T08:56:11;98.03;;;74.15;;
66830;SDS011;53739;44.224;22.528;2022-11-20T08:58:37;96.20;;;65.38;;
66830;SDS011;53739;44.224;22.528;2022-11-20T09:01:04;96.82;;;65.88;;
66830;SDS011;53739;44.224;22.528;2022-11-20T09:03:30;93.50;;;61.00;;
66830;SDS011;53739;44.224;22.528;2022-11-20T09:05:57;85.43;;;56.40;;
66830;SDS011;53739;44.224;22.528;2022-11-20T09:08:24;82.90;;;56.45;;
66830;SDS011;53739;44.224;22.528;2022-11-20T09:10:53;102.25;;;65.40;;
66830;SDS011;53739;44.224;22.528;2022-11-20T09:13:23;189.77;;;146.77;;
66830;SDS011;53739;44.224;22.528;2022-11-20T09:31:30;116.97;;;98.35;;
66830;SDS011;53739;44.224;22.528;2022-11-20T09:33:56;188.50;;;136.07;;
66830;SDS011;53739;44.224;22.528;2022-11-20T09:36:22;138.48;;;102.00;;
66830;SDS011;53739;44.224;22.528;2022-11-20T09:38:48;404.90;;;308.80;;
66830;SDS011;53739;44.224;22.528;2022-11-20T09:42:17;514.75;;;437.33;;
66830;SDS011;53739;44.224;22.528;2022-11-20T09:55:11;131.48;;;92.70;;
66830;SDS011;53739;44.224;22.528;2022-11-20T09:57:43;134.13;;;94.35;;
66830;SDS011;53739;44.224;22.528;2022-11-20T10:00:12;139.27;;;104.57;;
66830;SDS011;53739;44.224;22.528;2022-11-20T10:02:52;130.05;;;91.85;;
66830;SDS011;53739;44.224;22.528;2022-11-20T10:08:28;133.10;;;98.20;;
66830;SDS011;53739;44.224;22.528;2022-11-20T10:19:31;142.98;;;108.18;;
66830;SDS011;53739;44.224;22.528;2022-11-20T10:30:14;107.97;;;73.47;;
66830;SDS011;53739;44.224;22.528;2022-11-20T10:32:52;91.47;;;61.65;;
66830;SDS011;53739;44.224;22.528;2022-11-20T10:37:51;112.70;;;78.07;;
66830;SDS011;53739;44.224;22.528;2022-11-20T10:43:01;93.72;;;63.38;;
66830;SDS011;53739;44.224;22.528;2022-11-20T10:45:40;83.72;;;59.97;;
66830;SDS011;53739;44.224;22.528;2022-11-20T10:48:22;80.22;;;57.83;;
66830;SDS011;53739;44.224;22.528;2022-11-20T10:51:02;106.55;;;67.63;;
66830;SDS011;53739;44.224;22.528;2022-11-20T10:56:48;95.97;;;66.20;;
66830;SDS011;53739;44.224;22.528;2022-11-20T11:02:20;51.67;;;40.05;;
66830;SDS011;53739;44.224;22.528;2022-11-20T11:04:49;76.38;;;56.85;;
66830;SDS011;53739;44.224;22.528;2022-11-20T11:10:05;86.43;;;74.32;;
66830;SDS011;53739;44.224;22.528;2022-11-20T11:12:46;70.40;;;56.00;;
66830;SDS011;53739;44.224;22.528;2022-11-20T11:15:30;62.78;;;49.35;;
66830;SDS011;53739;44.224;22.528;2022-11-20T11:18:11;76.80;;;57.03;;
66830;SDS011;53739;44.224;22.528;2022-11-20T11:20:49;67.22;;;52.30;;
66830;SDS011;53739;44.224;22.528;2022-11-20T11:23:32;70.43;;;52.03;;
66830;SDS011;53739;44.224;22.528;2022-11-20T11:26:02;66.82;;;51.72;;
66830;SDS011;53739;44.224;22.528;2022-11-20T11:28:29;69.72;;;50.80;;
66830;SDS011;53739;44.224;22.528;2022-11-20T11:30:55;64.40;;;48.33;;
66830;SDS011;53739;44.224;22.528;2022-11-20T11:33:23;130.45;;;91.00;;
66830;SDS011;53739;44.224;22.528;2022-11-20T11:35:52;134.93;;;102.53;;
66830;SDS011;53739;44.224;22.528;2022-11-20T11:38:28;175.57;;;117.90;;
66830;SDS011;53739;44.224;22.528;2022-11-20T11:41:05;99.88;;;77.53;;
66830;SDS011;53739;44.224;22.528;2022-11-20T11:43:35;82.00;;;61.25;;
66830;SDS011;53739;44.224;22.528;2022-11-20T11:51:22;93.78;;;65.95;;
66830;SDS011;53739;44.224;22.528;2022-11-20T11:53:51;128.60;;;90.55;;
66830;SDS011;53739;44.224;22.528;2022-11-20T11:56:18;190.93;;;141.02;;
66830;SDS011;53739;44.224;22.528;2022-11-20T12:07:29;100.07;;;72.20;;
66830;SDS011;53739;44.224;22.528;2022-11-20T12:10:21;210.93;;;152.63;;
66830;SDS011;53739;44.224;22.528;2022-11-20T12:16:13;65.32;;;51.35;;
66830;SDS011;53739;44.224;22.528;2022-11-20T12:18:43;55.78;;;43.47;;
66830;SDS011;53739;44.224;22.528;2022-11-20T12:21:18;61.60;;;46.92;;
66830;SDS011;53739;44.224;22.528;2022-11-20T12:24:00;59.10;;;44.92;;
66830;SDS011;53739;44.224;22.528;2022-11-20T12:27:06;67.68;;;51.17;;
66830;SDS011;53739;44.224;22.528;2022-11-20T12:37:57;362.45;;;222.20;;
66830;SDS011;53739;44.224;22.528;2022-11-20T12:40:44;129.43;;;90.40;;
66830;SDS011;53739;44.224;22.528;2022-11-20T12:43:24;201.70;;;131.98;;
66830;SDS011;53739;44.224;22.528;2022-11-20T12:51:48;146.90;;;113.35;;
66830;SDS011;53739;44.224;22.528;2022-11-20T12:54:33;101.75;;;75.70;;
66830;SDS011;53739;44.224;22.528;2022-11-20T12:57:36;221.15;;;169.63;;
66830;SDS011;53739;44.224;22.528;2022-11-20T13:00:21;126.03;;;96.25;;
66830;SDS011;53739;44.224;22.528;2022-11-20T13:05:53;118.80;;;105.80;;
66830;SDS011;53739;44.224;22.528;2022-11-20T13:08:36;197.85;;;145.35;;
66830;SDS011;53739;44.224;22.528;2022-11-20T13:13:45;77.95;;;68.57;;
66830;SDS011;53739;44.224;22.528;2022-11-20T13:19:12;68.13;;;54.33;;
66830;SDS011;53739;44.224;22.528;2022-11-20T13:21:41;158.43;;;119.88;;
66830;SDS011;53739;44.224;22.528;2022-11-20T13:29:25;120.22;;;94.75;;
66830;SDS011;53739;44.224;22.528;2022-11-20T13:32:00;275.98;;;196.18;;
66830;SDS011;53739;44.224;22.528;2022-11-20T13:34:32;115.25;;;89.53;;
66830;SDS011;53739;44.224;22.528;2022-11-20T13:36:59;132.25;;;103.00;;
66830;SDS011;53739;44.224;22.528;2022-11-20T13:39:32;119.70;;;92.63;;
66830;SDS011;53739;44.224;22.528;2022-11-20T13:42:18;119.40;;;90.00;;
66830;SDS011;53739;44.224;22.528;2022-11-20T13:44:54;107.90;;;78.43;;
66830;SDS011;53739;44.224;22.528;2022-11-20T13:47:26;97.97;;;72.55;;
66830;SDS011;53739;44.224;22.528;2022-11-20T13:49:52;116.80;;;80.93;;
66830;SDS011;53739;44.224;22.528;2022-11-20T13:55:12;178.07;;;115.35;;
66830;SDS011;53739;44.224;22.528;2022-11-20T14:00:43;98.18;;;66.50;;
66830;SDS011;53739;44.224;22.528;2022-11-20T14:03:35;166.32;;;114.78;;
66830;SDS011;53739;44.224;22.528;2022-11-20T14:06:03;105.45;;;75.38;;
66830;SDS011;53739;44.224;22.528;2022-11-20T14:08:36;124.13;;;92.18;;
66830;SDS011;53739;44.224;22.528;2022-11-20T14:11:05;119.22;;;93.20;;
66830;SDS011;53739;44.224;22.528;2022-11-20T14:13:38;110.07;;;83.30;;
66830;SDS011;53739;44.224;22.528;2022-11-20T14:16:04;105.80;;;80.93;;
66830;SDS011;53739;44.224;22.528;2022-11-20T14:18:30;107.28;;;84.45;;
66830;SDS011;53739;44.224;22.528;2022-11-20T14:20:59;119.95;;;90.22;;
66830;SDS011;53739;44.224;22.528;2022-11-20T14:23:27;108.35;;;81.85;;
66830;SDS011;53739;44.224;22.528;2022-11-20T14:25:54;123.45;;;93.68;;
66830;SDS011;53739;44.224;22.528;2022-11-20T14:28:27;134.95;;;101.03;;
66830;SDS011;53739;44.224;22.528;2022-11-20T14:30:55;159.77;;;129.00;;
66830;SDS011;53739;44.224;22.528;2022-11-20T14:33:22;137.05;;;112.80;;
66830;SDS011;53739;44.224;22.528;2022-11-20T14:35:51;168.85;;;139.80;;
66830;SDS011;53739;44.224;22.528;2022-11-20T14:38:22;136.15;;;109.72;;
66830;SDS011;53739;44.224;22.528;2022-11-20T14:40:51;95.22;;;72.45;;
66830;SDS011;53739;44.224;22.528;2022-11-20T14:43:18;89.85;;;69.43;;
66830;SDS011;53739;44.224;22.528;2022-11-20T14:45:54;81.32;;;66.72;;
66830;SDS011;53739;44.224;22.528;2022-11-20T14:48:23;90.18;;;71.05;;
66830;SDS011;53739;44.224;22.528;2022-11-20T14:53:24;88.57;;;70.10;;
66830;SDS011;53739;44.224;22.528;2022-11-20T14:55:54;125.30;;;103.82;;
66830;SDS011;53739;44.224;22.528;2022-11-20T14:58:22;125.57;;;100.82;;
66830;SDS011;53739;44.224;22.528;2022-11-20T15:00:53;218.38;;;157.68;;
66830;SDS011;53739;44.224;22.528;2022-11-20T15:03:33;189.63;;;147.30;;
66830;SDS011;53739;44.224;22.528;2022-11-20T15:06:01;164.65;;;131.75;;
66830;SDS011;53739;44.224;22.528;2022-11-20T15:08:27;191.55;;;153.30;;
66830;SDS011;53739;44.224;22.528;2022-11-20T15:10:53;144.70;;;112.55;;
66830;SDS011;53739;44.224;22.528;2022-11-20T15:13:29;171.77;;;131.75;;
66830;SDS011;53739;44.224;22.528;2022-11-20T15:15:56;200.32;;;152.27;;
66830;SDS011;53739;44.224;22.528;2022-11-20T15:18:24;194.07;;;140.25;;
66830;SDS011;53739;44.224;22.528;2022-11-20T15:20:52;177.20;;;128.90;;
66830;SDS011;53739;44.224;22.528;2022-11-20T15:23:20;213.15;;;155.73;;
66830;SDS011;53739;44.224;22.528;2022-11-20T15:25:46;426.83;;;281.27;;
66830;SDS011;53739;44.224;22.528;2022-11-20T15:28:35;805.47;;;504.88;;
66830;SDS011;53739;44.224;22.528;2022-11-20T15:31:04;228.18;;;154.05;;
66830;SDS011;53739;44.224;22.528;2022-11-20T15:33:31;230.43;;;152.10;;
66830;SDS011;53739;44.224;22.528;2022-11-20T15:35:58;200.98;;;135.15;;
66830;SDS011;53739;44.224;22.528;2022-11-20T15:38:24;172.90;;;124.68;;
66830;SDS011;53739;44.224;22.528;2022-11-20T15:40:50;843.88;;;558.95;;
66830;SDS011;53739;44.224;22.528;2022-11-20T15:43:17;979.25;;;612.63;;
66830;SDS011;53739;44.224;22.528;2022-11-20T15:48:15;286.52;;;195.38;;
66830;SDS011;53739;44.224;22.528;2022-11-20T15:50:50;278.23;;;186.57;;
66830;SDS011;53739;44.224;22.528;2022-11-20T15:53:26;182.75;;;124.97;;
66830;SDS011;53739;44.224;22.528;2022-11-20T15:55:52;171.38;;;118.25;;
66830;SDS011;53739;44.224;22.528;2022-11-20T15:58:18;290.17;;;187.82;;
66830;SDS011;53739;44.224;22.528;2022-11-20T16:00:44;259.42;;;175.05;;
66830;SDS011;53739;44.224;22.528;2022-11-20T16:03:10;223.05;;;157.65;;
66830;SDS011;53739;44.224;22.528;2022-11-20T16:05:37;234.35;;;161.25;;
66830;SDS011;53739;44.224;22.528;2022-11-20T16:08:03;228.30;;;154.25;;
66830;SDS011;53739;44.224;22.528;2022-11-20T16:10:29;354.95;;;256.75;;
66830;SDS011;53739;44.224;22.528;2022-11-20T16:12:56;225.82;;;160.40;;
66830;SDS011;53739;44.224;22.528;2022-11-20T16:15:40;374.42;;;261.52;;
66830;SDS011;53739;44.224;22.528;2022-11-20T16:18:16;216.95;;;166.18;;